sensor_id;sensor_type;location;lat;lon;timestamp;pressure;altitude;pressure_sealevel;temperature
80246;BMP280;69558;39.208;-77.226;2023-06-01T00:02:25;100507.47;;;21.33
80246;BMP280;69558;39.208;-77.226;2023-06-01T00:04:52;100505.06;;;21.32
80246;BMP280;69558;39.208;-77.226;2023-06-01T00:07:18;100508.69;;;21.31
80246;BMP280;69558;39.208;-77.226;2023-06-01T00:09:44;100507.47;;;21.33
80246;BMP280;69558;39.208;-77.226;2023-06-01T00:12:10;100514.19;;;21.36
80246;BMP280;69558;39.208;-77.226;2023-06-01T00:14:36;100511.16;;;21.39
80246;BMP280;69558;39.208;-77.226;2023-06-01T00:17:02;100510.13;;;21.40
80246;BMP280;69558;39.208;-77.226;2023-06-01T00:19:31;100493.66;;;21.31
80246;BMP280;69558;39.208;-77.226;2023-06-01T00:21:58;100500.59;;;21.39
80246;BMP280;69558;39.208;-77.226;2023-06-01T00:24:24;100511.75;;;21.41
80246;BMP280;69558;39.208;-77.226;2023-06-01T00:26:52;100508.69;;;21.37
80246;BMP280;69558;39.208;-77.226;2023-06-01T00:29:18;100509.34;;;21.33
80246;BMP280;69558;39.208;-77.226;2023-06-01T00:31:48;100505.22;;;21.30
80246;BMP280;69558;39.208;-77.226;2023-06-01T00:34:15;100504.66;;;21.28
80246;BMP280;69558;39.208;-77.226;2023-06-01T00:36:41;100488.59;;;21.17
80246;BMP280;69558;39.208;-77.226;2023-06-01T00:39:10;100485.94;;;21.17
80246;BMP280;69558;39.208;-77.226;2023-06-01T00:41:37;100502.59;;;21.30
80246;BMP280;69558;39.208;-77.226;2023-06-01T00:44:04;100506.03;;;21.31
80246;BMP280;69558;39.208;-77.226;2023-06-01T00:46:30;100507.47;;;21.33
80246;BMP280;69558;39.208;-77.226;2023-06-01T00:48:59;100509.50;;;21.38
80246;BMP280;69558;39.208;-77.226;2023-06-01T00:51:25;100468.72;;;21.21
80246;BMP280;69558;39.208;-77.226;2023-06-01T00:53:52;100497.31;;;21.30
80246;BMP280;69558;39.208;-77.226;2023-06-01T00:56:19;100509.31;;;21.39
80246;BMP280;69558;39.208;-77.226;2023-06-01T00:58:47;100509.09;;;21.34
80246;BMP280;69558;39.208;-77.226;2023-06-01T01:01:13;100511.16;;;21.32
80246;BMP280;69558;39.208;-77.226;2023-06-01T01:03:49;100514.38;;;21.28
80246;BMP280;69558;39.208;-77.226;2023-06-01T01:06:38;100524.31;;;21.26
80246;BMP280;69558;39.208;-77.226;2023-06-01T01:09:22;100502.38;;;21.12
80246;BMP280;69558;39.208;-77.226;2023-06-01T01:12:00;100530.41;;;21.26
80246;BMP280;69558;39.208;-77.226;2023-06-01T01:17:37;100533.44;;;21.30
80246;BMP280;69558;39.208;-77.226;2023-06-01T01:20:16;100530.81;;;21.36
80246;BMP280;69558;39.208;-77.226;2023-06-01T01:30:54;100547.06;;;21.33
80246;BMP280;69558;39.208;-77.226;2023-06-01T01:33:21;100535.06;;;21.18
80246;BMP280;69558;39.208;-77.226;2023-06-01T01:35:49;100548.47;;;21.23
80246;BMP280;69558;39.208;-77.226;2023-06-01T01:38:16;100551.72;;;21.25
80246;BMP280;69558;39.208;-77.226;2023-06-01T01:40:42;100541.34;;;21.17
80246;BMP280;69558;39.208;-77.226;2023-06-01T01:43:08;100557.59;;;21.27
80246;BMP280;69558;39.208;-77.226;2023-06-01T01:45:34;100560.06;;;21.28
80246;BMP280;69558;39.208;-77.226;2023-06-01T01:48:23;100563.28;;;21.30
80246;BMP280;69558;39.208;-77.226;2023-06-01T01:50:57;100553.56;;;21.24
80246;BMP280;69558;39.208;-77.226;2023-06-01T01:53:25;100560.88;;;21.29
80246;BMP280;69558;39.208;-77.226;2023-06-01T01:55:52;100567.16;;;21.34
80246;BMP280;69558;39.208;-77.226;2023-06-01T01:58:18;100555.78;;;21.27
80246;BMP280;69558;39.208;-77.226;2023-06-01T02:00:45;100552.72;;;21.30
80246;BMP280;69558;39.208;-77.226;2023-06-01T02:03:15;100572.03;;;21.37
80246;BMP280;69558;39.208;-77.226;2023-06-01T02:05:42;100563.28;;;21.30
80246;BMP280;69558;39.208;-77.226;2023-06-01T02:08:08;100535.47;;;21.08
80246;BMP280;69558;39.208;-77.226;2023-06-01T02:10:34;100549.66;;;21.13
80246;BMP280;69558;39.208;-77.226;2023-06-01T02:13:00;100570.19;;;21.25
80246;BMP280;69558;39.208;-77.226;2023-06-01T02:15:26;100571.41;;;21.22
80246;BMP280;69558;39.208;-77.226;2023-06-01T02:17:57;100555.97;;;21.12
80246;BMP280;69558;39.208;-77.226;2023-06-01T02:20:24;100569.97;;;21.20
80246;BMP280;69558;39.208;-77.226;2023-06-01T02:22:51;100576.72;;;21.29
80246;BMP280;69558;39.208;-77.226;2023-06-01T02:25:16;100570.59;;;21.35
80246;BMP280;69558;39.208;-77.226;2023-06-01T02:27:45;100571.63;;;21.34
80246;BMP280;69558;39.208;-77.226;2023-06-01T02:30:11;100572.66;;;21.39
80246;BMP280;69558;39.208;-77.226;2023-06-01T02:32:37;100571.66;;;21.40
80246;BMP280;69558;39.208;-77.226;2023-06-01T02:35:04;100572.66;;;21.39
80246;BMP280;69558;39.208;-77.226;2023-06-01T02:37:32;100555.16;;;21.25
80246;BMP280;69558;39.208;-77.226;2023-06-01T02:39:58;100564.09;;;21.31
80246;BMP280;69558;39.208;-77.226;2023-06-01T02:42:25;100564.53;;;21.28
80246;BMP280;69558;39.208;-77.226;2023-06-01T02:44:51;100552.50;;;21.25
80246;BMP280;69558;39.208;-77.226;2023-06-01T02:47:17;100569.38;;;21.24
80246;BMP280;69558;39.208;-77.226;2023-06-01T02:49:43;100562.28;;;21.25
80246;BMP280;69558;39.208;-77.226;2023-06-01T02:52:09;100547.84;;;21.21
80246;BMP280;69558;39.208;-77.226;2023-06-01T02:54:35;100557.19;;;21.30
80246;BMP280;69558;39.208;-77.226;2023-06-01T02:57:01;100556.81;;;21.33
80246;BMP280;69558;39.208;-77.226;2023-06-01T02:59:27;100559.66;;;21.38
80246;BMP280;69558;39.208;-77.226;2023-06-01T03:01:53;100549.72;;;21.40
80246;BMP280;69558;39.208;-77.226;2023-06-01T03:04:19;100556.41;;;21.42
80246;BMP280;69558;39.208;-77.226;2023-06-01T03:06:46;100556.22;;;21.37
80246;BMP280;69558;39.208;-77.226;2023-06-01T03:09:12;100548.47;;;21.29
80246;BMP280;69558;39.208;-77.226;2023-06-01T03:11:42;100533.63;;;21.15
80246;BMP280;69558;39.208;-77.226;2023-06-01T03:14:08;100558.25;;;21.29
80246;BMP280;69558;39.208;-77.226;2023-06-01T03:16:35;100559.41;;;21.26
80246;BMP280;69558;39.208;-77.226;2023-06-01T03:19:01;100558.59;;;21.26
80246;BMP280;69558;39.208;-77.226;2023-06-01T03:21:28;100566.13;;;21.22
80246;BMP280;69558;39.208;-77.226;2023-06-01T03:23:55;100569.38;;;21.24
80246;BMP280;69558;39.208;-77.226;2023-06-01T03:26:21;100572.59;;;21.26
80246;BMP280;69558;39.208;-77.226;2023-06-01T03:28:47;100571.19;;;21.30
80246;BMP280;69558;39.208;-77.226;2023-06-01T03:31:13;100572.44;;;21.34
80246;BMP280;69558;39.208;-77.226;2023-06-01T03:33:39;100560.66;;;21.30
80246;BMP280;69558;39.208;-77.226;2023-06-01T03:36:06;100566.16;;;21.35
80246;BMP280;69558;39.208;-77.226;2023-06-01T03:38:32;100560.69;;;21.37
80246;BMP280;69558;39.208;-77.226;2023-06-01T03:40:59;100557.00;;;21.31
80246;BMP280;69558;39.208;-77.226;2023-06-01T03:43:26;100533.22;;;21.18
80246;BMP280;69558;39.208;-77.226;2023-06-01T03:45:52;100551.34;;;21.28
80246;BMP280;69558;39.208;-77.226;2023-06-01T03:48:18;100557.00;;;21.25
80246;BMP280;69558;39.208;-77.226;2023-06-01T03:50:45;100545.81;;;21.16
80246;BMP280;69558;39.208;-77.226;2023-06-01T03:53:11;100554.16;;;21.20
80246;BMP280;69558;39.208;-77.226;2023-06-01T03:55:37;100562.47;;;21.23
80246;BMP280;69558;39.208;-77.226;2023-06-01T03:58:04;100547.84;;;21.21
80246;BMP280;69558;39.208;-77.226;2023-06-01T04:00:31;100564.09;;;21.31
80246;BMP280;69558;39.208;-77.226;2023-06-01T04:02:58;100559.47;;;21.33
80246;BMP280;69558;39.208;-77.226;2023-06-01T04:05:27;100546.28;;;21.33
80246;BMP280;69558;39.208;-77.226;2023-06-01T04:07:54;100549.50;;;21.35
80246;BMP280;69558;39.208;-77.226;2023-06-01T04:10:21;100554.38;;;21.38
80246;BMP280;69558;39.208;-77.226;2023-06-01T04:12:48;100560.69;;;21.37
80246;BMP280;69558;39.208;-77.226;2023-06-01T04:15:16;100555.19;;;21.32
80246;BMP280;69558;39.208;-77.226;2023-06-01T04:17:43;100552.31;;;21.27
80246;BMP280;69558;39.208;-77.226;2023-06-01T04:20:13;100555.38;;;21.24
80246;BMP280;69558;39.208;-77.226;2023-06-01T04:22:40;100560.25;;;21.20
80246;BMP280;69558;39.208;-77.226;2023-06-01T04:25:08;100554.34;;;21.18
80246;BMP280;69558;39.208;-77.226;2023-06-01T04:27:34;100551.69;;;21.18
80246;BMP280;69558;39.208;-77.226;2023-06-01T04:30:07;100544.81;;;21.24
80246;BMP280;69558;39.208;-77.226;2023-06-01T04:32:37;100545.41;;;21.26
80246;BMP280;69558;39.208;-77.226;2023-06-01T04:35:06;100546.66;;;21.23
80246;BMP280;69558;39.208;-77.226;2023-06-01T04:37:41;100561.47;;;21.31
80246;BMP280;69558;39.208;-77.226;2023-06-01T04:40:09;100551.72;;;21.31
80246;BMP280;69558;39.208;-77.226;2023-06-01T04:42:41;100555.59;;;21.35
80246;BMP280;69558;39.208;-77.226;2023-06-01T04:45:08;100551.09;;;21.29
80246;BMP280;69558;39.208;-77.226;2023-06-01T04:47:34;100554.56;;;21.23
80246;BMP280;69558;39.208;-77.226;2023-06-01T04:50:09;100553.91;;;21.21
80246;BMP280;69558;39.208;-77.226;2023-06-01T04:52:39;100550.31;;;21.22
80246;BMP280;69558;39.208;-77.226;2023-06-01T04:55:06;100547.84;;;21.21
80246;BMP280;69558;39.208;-77.226;2023-06-01T04:57:36;100541.97;;;21.19
80246;BMP280;69558;39.208;-77.226;2023-06-01T05:00:06;100546.44;;;21.18
80246;BMP280;69558;39.208;-77.226;2023-06-01T05:02:45;100528.75;;;21.12
80246;BMP280;69558;39.208;-77.226;2023-06-01T05:05:14;100534.47;;;21.22
80246;BMP280;69558;39.208;-77.226;2023-06-01T05:07:40;100534.47;;;21.22
80246;BMP280;69558;39.208;-77.226;2023-06-01T05:10:09;100518.81;;;21.14
80246;BMP280;69558;39.208;-77.226;2023-06-01T05:12:36;100540.13;;;21.26
80246;BMP280;69558;39.208;-77.226;2023-06-01T05:15:06;100528.41;;;21.28
80246;BMP280;69558;39.208;-77.226;2023-06-01T05:17:32;100531.19;;;21.27
80246;BMP280;69558;39.208;-77.226;2023-06-01T05:19:59;100527.16;;;21.24
80246;BMP280;69558;39.208;-77.226;2023-06-01T05:22:26;100516.97;;;21.21
80246;BMP280;69558;39.208;-77.226;2023-06-01T05:24:51;100518.63;;;21.16
80246;BMP280;69558;39.208;-77.226;2023-06-01T05:27:18;100524.69;;;21.16
80246;BMP280;69558;39.208;-77.226;2023-06-01T05:29:44;100528.56;;;21.13
80246;BMP280;69558;39.208;-77.226;2023-06-01T05:32:10;100532.00;;;21.14
80246;BMP280;69558;39.208;-77.226;2023-06-01T05:34:36;100532.81;;;21.14
80246;BMP280;69558;39.208;-77.226;2023-06-01T05:37:02;100536.69;;;21.19
80246;BMP280;69558;39.208;-77.226;2023-06-01T05:39:28;100517.00;;;21.08
80246;BMP280;69558;39.208;-77.226;2023-06-01T05:41:56;100515.94;;;21.09
80246;BMP280;69558;39.208;-77.226;2023-06-01T05:44:24;100534.69;;;21.27
80246;BMP280;69558;39.208;-77.226;2023-06-01T05:46:51;100531.84;;;21.29
80246;BMP280;69558;39.208;-77.226;2023-06-01T05:49:18;100527.59;;;21.28
80246;BMP280;69558;39.208;-77.226;2023-06-01T05:51:45;100497.09;;;21.12
80246;BMP280;69558;39.208;-77.226;2023-06-01T05:54:12;100518.63;;;21.22
80246;BMP280;69558;39.208;-77.226;2023-06-01T05:56:39;100498.69;;;21.06
80246;BMP280;69558;39.208;-77.226;2023-06-01T05:59:08;100511.72;;;21.14
80246;BMP280;69558;39.208;-77.226;2023-06-01T06:01:34;100513.53;;;21.14
80246;BMP280;69558;39.208;-77.226;2023-06-01T06:04:01;100516.56;;;21.11
80246;BMP280;69558;39.208;-77.226;2023-06-01T06:06:28;100520.44;;;21.15
80246;BMP280;69558;39.208;-77.226;2023-06-01T06:08:55;100522.88;;;21.17
80246;BMP280;69558;39.208;-77.226;2023-06-01T06:11:21;100514.13;;;21.09
80246;BMP280;69558;39.208;-77.226;2023-06-01T06:13:48;100524.91;;;21.14
80246;BMP280;69558;39.208;-77.226;2023-06-01T06:16:18;100515.34;;;21.07
80246;BMP280;69558;39.208;-77.226;2023-06-01T06:18:46;100528.34;;;21.15
80246;BMP280;69558;39.208;-77.226;2023-06-01T06:21:12;100513.13;;;21.10
80246;BMP280;69558;39.208;-77.226;2023-06-01T06:23:38;100520.84;;;21.12
80246;BMP280;69558;39.208;-77.226;2023-06-01T06:26:06;100521.88;;;21.18
80246;BMP280;69558;39.208;-77.226;2023-06-01T06:28:32;100490.78;;;20.93
80246;BMP280;69558;39.208;-77.226;2023-06-01T06:31:00;100533.22;;;21.11
80246;BMP280;69558;39.208;-77.226;2023-06-01T06:33:26;100515.75;;;21.10
80246;BMP280;69558;39.208;-77.226;2023-06-01T06:35:52;100516.56;;;21.11
80246;BMP280;69558;39.208;-77.226;2023-06-01T06:38:18;100514.75;;;21.11
80246;BMP280;69558;39.208;-77.226;2023-06-01T06:40:44;100499.28;;;21.02
80246;BMP280;69558;39.208;-77.226;2023-06-01T06:43:10;100513.94;;;21.11
80246;BMP280;69558;39.208;-77.226;2023-06-01T06:45:36;100513.75;;;21.12
80246;BMP280;69558;39.208;-77.226;2023-06-01T06:48:02;100507.03;;;21.10
80246;BMP280;69558;39.208;-77.226;2023-06-01T06:50:28;100500.75;;;21.18
80246;BMP280;69558;39.208;-77.226;2023-06-01T06:52:54;100489.56;;;21.09
80246;BMP280;69558;39.208;-77.226;2023-06-01T06:55:20;100473.94;;;21.01
80246;BMP280;69558;39.208;-77.226;2023-06-01T06:57:47;100493.84;;;21.10
80246;BMP280;69558;39.208;-77.226;2023-06-01T07:00:15;100465.22;;;20.94
80246;BMP280;69558;39.208;-77.226;2023-06-01T07:02:42;100471.09;;;20.96
80246;BMP280;69558;39.208;-77.226;2023-06-01T07:05:10;100482.88;;;21.00
80246;BMP280;69558;39.208;-77.226;2023-06-01T07:07:37;100483.66;;;21.00
80246;BMP280;69558;39.208;-77.226;2023-06-01T07:10:04;100493.03;;;21.03
80246;BMP280;69558;39.208;-77.226;2023-06-01T07:12:30;100491.38;;;21.02
80246;BMP280;69558;39.208;-77.226;2023-06-01T07:14:56;100486.91;;;21.02
80246;BMP280;69558;39.208;-77.226;2023-06-01T07:17:22;100479.19;;;21.01
80246;BMP280;69558;39.208;-77.226;2023-06-01T07:19:48;100486.16;;;21.08
80246;BMP280;69558;39.208;-77.226;2023-06-01T07:22:14;100484.91;;;21.11
80246;BMP280;69558;39.208;-77.226;2023-06-01T07:24:40;100455.47;;;20.94
80246;BMP280;69558;39.208;-77.226;2023-06-01T07:27:06;100472.75;;;21.03
80246;BMP280;69558;39.208;-77.226;2023-06-01T07:29:34;100472.31;;;21.00
80246;BMP280;69558;39.208;-77.226;2023-06-01T07:32:00;100456.50;;;20.93
80246;BMP280;69558;39.208;-77.226;2023-06-01T07:34:26;100475.38;;;21.03
80246;BMP280;69558;39.208;-77.226;2023-06-01T07:36:52;100473.72;;;21.02
80246;BMP280;69558;39.208;-77.226;2023-06-01T07:39:18;100464.59;;;20.92
80246;BMP280;69558;39.208;-77.226;2023-06-01T07:41:45;100469.88;;;20.92
80246;BMP280;69558;39.208;-77.226;2023-06-01T07:44:13;100486.31;;;21.00
80246;BMP280;69558;39.208;-77.226;2023-06-01T07:46:44;100478.84;;;21.04
80246;BMP280;69558;39.208;-77.226;2023-06-01T07:49:10;100489.38;;;21.04
80246;BMP280;69558;39.208;-77.226;2023-06-01T07:51:42;100486.53;;;20.99
80246;BMP280;69558;39.208;-77.226;2023-06-01T07:54:09;100488.94;;;21.00
80246;BMP280;69558;39.208;-77.226;2023-06-01T07:56:35;100504.97;;;21.05
80246;BMP280;69558;39.208;-77.226;2023-06-01T07:59:01;100501.34;;;21.06
80246;BMP280;69558;39.208;-77.226;2023-06-01T08:01:27;100500.09;;;21.02
80246;BMP280;69558;39.208;-77.226;2023-06-01T08:03:53;100495.84;;;21.01
80246;BMP280;69558;39.208;-77.226;2023-06-01T08:06:21;100488.13;;;20.93
80246;BMP280;69558;39.208;-77.226;2023-06-01T08:08:50;100507.19;;;21.02
80246;BMP280;69558;39.208;-77.226;2023-06-01T08:11:16;100496.47;;;21.03
80246;BMP280;69558;39.208;-77.226;2023-06-01T08:13:44;100497.66;;;21.01
80246;BMP280;69558;39.208;-77.226;2023-06-01T08:16:13;100495.84;;;20.95
80246;BMP280;69558;39.208;-77.226;2023-06-01T08:18:40;100489.56;;;20.96
80246;BMP280;69558;39.208;-77.226;2023-06-01T08:21:06;100502.13;;;21.00
80246;BMP280;69558;39.208;-77.226;2023-06-01T08:23:34;100487.50;;;20.98
80246;BMP280;69558;39.208;-77.226;2023-06-01T08:26:01;100484.88;;;20.91
80246;BMP280;69558;39.208;-77.226;2023-06-01T08:28:27;100496.25;;;20.92
80246;BMP280;69558;39.208;-77.226;2023-06-01T08:30:52;100500.09;;;20.89
80246;BMP280;69558;39.208;-77.226;2023-06-01T08:33:18;100498.88;;;20.92
80246;BMP280;69558;39.208;-77.226;2023-06-01T08:35:44;100497.66;;;20.94
80246;BMP280;69558;39.208;-77.226;2023-06-01T08:38:10;100481.59;;;20.83
80246;BMP280;69558;39.208;-77.226;2023-06-01T08:40:36;100512.69;;;20.94
80246;BMP280;69558;39.208;-77.226;2023-06-01T08:43:17;100516.53;;;20.98
80246;BMP280;69558;39.208;-77.226;2023-06-01T08:45:44;100520.41;;;20.95
80246;BMP280;69558;39.208;-77.226;2023-06-01T08:48:15;100517.34;;;20.92
80246;BMP280;69558;39.208;-77.226;2023-06-01T08:50:47;100520.59;;;20.94
80246;BMP280;69558;39.208;-77.226;2023-06-01T08:53:18;100486.22;;;20.74
80246;BMP280;69558;39.208;-77.226;2023-06-01T08:55:46;100521.56;;;20.93
80246;BMP280;69558;39.208;-77.226;2023-06-01T08:58:13;100520.81;;;20.99
80246;BMP280;69558;39.208;-77.226;2023-06-01T09:00:40;100494.81;;;20.89
80246;BMP280;69558;39.208;-77.226;2023-06-01T09:03:06;100518.41;;;21.04
80246;BMP280;69558;39.208;-77.226;2023-06-01T09:05:32;100525.06;;;21.00
80246;BMP280;69558;39.208;-77.226;2023-06-01T09:07:59;100529.13;;;20.96
80246;BMP280;69558;39.208;-77.226;2023-06-01T09:10:27;100536.00;;;20.97
80246;BMP280;69558;39.208;-77.226;2023-06-01T09:12:54;100541.06;;;20.92
80246;BMP280;69558;39.208;-77.226;2023-06-01T09:15:21;100538.22;;;20.87
80246;BMP280;69558;39.208;-77.226;2023-06-01T09:17:49;100536.97;;;20.83
80246;BMP280;69558;39.208;-77.226;2023-06-01T09:20:24;100532.28;;;20.78
80246;BMP280;69558;39.208;-77.226;2023-06-01T09:22:50;100549.97;;;20.84
80246;BMP280;69558;39.208;-77.226;2023-06-01T09:25:16;100544.25;;;20.80
80246;BMP280;69558;39.208;-77.226;2023-06-01T09:27:47;100552.59;;;20.84
80246;BMP280;69558;39.208;-77.226;2023-06-01T09:30:16;100553.00;;;20.88
80246;BMP280;69558;39.208;-77.226;2023-06-01T09:32:43;100548.75;;;20.87
80246;BMP280;69558;39.208;-77.226;2023-06-01T09:38:06;100540.38;;;20.76
80246;BMP280;69558;39.208;-77.226;2023-06-01T09:40:33;100559.47;;;20.78
80246;BMP280;69558;39.208;-77.226;2023-06-01T09:43:18;100568.03;;;20.87
80246;BMP280;69558;39.208;-77.226;2023-06-01T09:46:08;100550.69;;;20.71
80246;BMP280;69558;39.208;-77.226;2023-06-01T09:48:33;100585.06;;;20.85
80246;BMP280;69558;39.208;-77.226;2023-06-01T09:51:00;100583.22;;;20.85
80246;BMP280;69558;39.208;-77.226;2023-06-01T09:53:26;100580.59;;;20.85
80246;BMP280;69558;39.208;-77.226;2023-06-01T09:56:01;100581.22;;;20.87
80246;BMP280;69558;39.208;-77.226;2023-06-01T09:58:27;100564.94;;;20.77
80246;BMP280;69558;39.208;-77.226;2023-06-01T10:00:54;100583.47;;;20.90
80246;BMP280;69558;39.208;-77.226;2023-06-01T10:03:21;100582.44;;;20.91
80246;BMP280;69558;39.208;-77.226;2023-06-01T10:05:47;100586.91;;;20.91
80246;BMP280;69558;39.208;-77.226;2023-06-01T10:08:16;100580.81;;;20.90
80246;BMP280;69558;39.208;-77.226;2023-06-01T10:10:44;100573.06;;;20.82
80246;BMP280;69558;39.208;-77.226;2023-06-01T10:13:11;100589.13;;;20.87
80246;BMP280;69558;39.208;-77.226;2023-06-01T10:15:37;100582.81;;;20.88
80246;BMP280;69558;39.208;-77.226;2023-06-01T10:18:04;100564.34;;;20.75
80246;BMP280;69558;39.208;-77.226;2023-06-01T10:20:34;100585.66;;;20.87
80246;BMP280;69558;39.208;-77.226;2023-06-01T10:23:01;100569.38;;;20.70
80246;BMP280;69558;39.208;-77.226;2023-06-01T10:25:39;100583.44;;;20.84
80246;BMP280;69558;39.208;-77.226;2023-06-01T10:28:09;100585.88;;;20.85
80246;BMP280;69558;39.208;-77.226;2023-06-01T10:30:36;100588.09;;;20.88
80246;BMP280;69558;39.208;-77.226;2023-06-01T10:33:02;100563.53;;;20.74
80246;BMP280;69558;39.208;-77.226;2023-06-01T10:40:42;100566.31;;;20.73
80246;BMP280;69558;39.208;-77.226;2023-06-01T10:48:57;100593.16;;;20.83
80246;BMP280;69558;39.208;-77.226;2023-06-01T10:51:23;100592.16;;;20.84
80246;BMP280;69558;39.208;-77.226;2023-06-01T10:53:50;100577.88;;;20.72
80246;BMP280;69558;39.208;-77.226;2023-06-01T10:56:18;100594.56;;;20.79
80246;BMP280;69558;39.208;-77.226;2023-06-01T10:59:11;100598.63;;;20.82
80246;BMP280;69558;39.208;-77.226;2023-06-01T11:01:40;100573.56;;;20.64
80246;BMP280;69558;39.208;-77.226;2023-06-01T11:04:06;100588.47;;;20.78
80246;BMP280;69558;39.208;-77.226;2023-06-01T11:06:35;100585.44;;;20.75
80246;BMP280;69558;39.208;-77.226;2023-06-01T11:09:12;100576.84;;;20.66
80246;BMP280;69558;39.208;-77.226;2023-06-01T11:11:56;100597.78;;;20.74
80246;BMP280;69558;39.208;-77.226;2023-06-01T11:14:28;100566.00;;;20.48
80246;BMP280;69558;39.208;-77.226;2023-06-01T11:17:25;100606.66;;;20.67
80246;BMP280;69558;39.208;-77.226;2023-06-01T11:20:00;100612.78;;;20.74
80246;BMP280;69558;39.208;-77.226;2023-06-01T11:22:34;100600.78;;;20.71
80246;BMP280;69558;39.208;-77.226;2023-06-01T11:25:04;100603.22;;;20.73
80246;BMP280;69558;39.208;-77.226;2023-06-01T11:27:31;100611.78;;;20.75
80246;BMP280;69558;39.208;-77.226;2023-06-01T11:29:57;100613.41;;;20.76
80246;BMP280;69558;39.208;-77.226;2023-06-01T11:32:24;100580.66;;;20.57
80246;BMP280;69558;39.208;-77.226;2023-06-01T11:34:51;100600.16;;;20.63
80246;BMP280;69558;39.208;-77.226;2023-06-01T11:37:19;100608.75;;;20.78
80246;BMP280;69558;39.208;-77.226;2023-06-01T11:39:46;100614.25;;;20.83
80246;BMP280;69558;39.208;-77.226;2023-06-01T11:42:18;100605.13;;;20.79
80246;BMP280;69558;39.208;-77.226;2023-06-01T11:44:55;100609.94;;;20.75
80246;BMP280;69558;39.208;-77.226;2023-06-01T11:47:21;100613.63;;;20.74
80246;BMP280;69558;39.208;-77.226;2023-06-01T11:49:49;100595.00;;;20.55
80246;BMP280;69558;39.208;-77.226;2023-06-01T11:52:19;100609.41;;;20.59
80246;BMP280;69558;39.208;-77.226;2023-06-01T11:54:48;100603.56;;;20.57
80246;BMP280;69558;39.208;-77.226;2023-06-01T11:57:15;100593.97;;;20.49
80246;BMP280;69558;39.208;-77.226;2023-06-01T11:59:45;100611.69;;;20.62
80246;BMP280;69558;39.208;-77.226;2023-06-01T12:02:24;100611.72;;;20.68
80246;BMP280;69558;39.208;-77.226;2023-06-01T12:05:03;100611.56;;;20.76
80246;BMP280;69558;39.208;-77.226;2023-06-01T12:07:46;100611.00;;;20.81
80246;BMP280;69558;39.208;-77.226;2023-06-01T12:10:13;100608.59;;;20.86
80246;BMP280;69558;39.208;-77.226;2023-06-01T12:12:42;100616.31;;;20.88
80246;BMP280;69558;39.208;-77.226;2023-06-01T12:15:16;100614.91;;;20.92
80246;BMP280;69558;39.208;-77.226;2023-06-01T12:17:55;100577.06;;;20.71
80246;BMP280;69558;39.208;-77.226;2023-06-01T12:20:39;100617.16;;;20.95
80246;BMP280;69558;39.208;-77.226;2023-06-01T12:28:14;100608.59;;;20.93
80246;BMP280;69558;39.208;-77.226;2023-06-01T12:30:40;100614.94;;;20.98
80246;BMP280;69558;39.208;-77.226;2023-06-01T12:33:06;100572.25;;;20.75
80246;BMP280;69558;39.208;-77.226;2023-06-01T12:35:32;100606.38;;;20.90
80246;BMP280;69558;39.208;-77.226;2023-06-01T12:40:28;100630.81;;;20.70
80246;BMP280;69558;39.208;-77.226;2023-06-01T12:42:54;100625.47;;;20.64
80246;BMP280;69558;39.208;-77.226;2023-06-01T12:45:20;100618.94;;;20.53
80246;BMP280;69558;39.208;-77.226;2023-06-01T12:47:46;100604.91;;;20.46
80246;BMP280;69558;39.208;-77.226;2023-06-01T12:50:12;100623.25;;;20.61
80246;BMP280;69558;39.208;-77.226;2023-06-01T12:52:40;100612.06;;;20.59
80246;BMP280;69558;39.208;-77.226;2023-06-01T12:55:08;100634.06;;;20.72
80246;BMP280;69558;39.208;-77.226;2023-06-01T12:57:35;100625.34;;;20.72
80246;BMP280;69558;39.208;-77.226;2023-06-01T13:00:03;100628.41;;;20.75
80246;BMP280;69558;39.208;-77.226;2023-06-01T13:02:30;100596.25;;;20.59
80246;BMP280;69558;39.208;-77.226;2023-06-01T13:04:56;100607.91;;;20.71
80246;BMP280;69558;39.208;-77.226;2023-06-01T13:07:24;100626.63;;;20.83
80246;BMP280;69558;39.208;-77.226;2023-06-01T13:09:50;100625.34;;;20.72
80246;BMP280;69558;39.208;-77.226;2023-06-01T13:12:17;100620.28;;;20.77
80246;BMP280;69558;39.208;-77.226;2023-06-01T13:14:43;100613.78;;;20.73
80246;BMP280;69558;39.208;-77.226;2023-06-01T13:17:10;100623.13;;;20.75
80246;BMP280;69558;39.208;-77.226;2023-06-01T13:19:37;100614.34;;;20.68
80246;BMP280;69558;39.208;-77.226;2023-06-01T13:22:03;100622.25;;;20.68
80246;BMP280;69558;39.208;-77.226;2023-06-01T13:24:29;100615.16;;;20.69
80246;BMP280;69558;39.208;-77.226;2023-06-01T13:26:55;100616.81;;;20.70
80246;BMP280;69558;39.208;-77.226;2023-06-01T13:29:22;100615.81;;;20.71
80246;BMP280;69558;39.208;-77.226;2023-06-01T13:31:47;100596.69;;;20.62
80246;BMP280;69558;39.208;-77.226;2023-06-01T13:34:14;100591.44;;;20.69
80246;BMP280;69558;39.208;-77.226;2023-06-01T13:36:41;100594.13;;;20.75
80246;BMP280;69558;39.208;-77.226;2023-06-01T13:39:07;100604.91;;;20.80
80246;BMP280;69558;39.208;-77.226;2023-06-01T13:41:35;100577.44;;;20.62
80246;BMP280;69558;39.208;-77.226;2023-06-01T13:44:01;100577.34;;;20.49
80246;BMP280;69558;39.208;-77.226;2023-06-01T13:46:28;100577.69;;;20.39
80246;BMP280;69558;39.208;-77.226;2023-06-01T13:48:54;100605.53;;;20.55
80246;BMP280;69558;39.208;-77.226;2023-06-01T13:51:20;100597.81;;;20.46
80246;BMP280;69558;39.208;-77.226;2023-06-01T13:53:48;100606.97;;;20.51
80246;BMP280;69558;39.208;-77.226;2023-06-01T13:56:15;100608.63;;;20.58
80246;BMP280;69558;39.208;-77.226;2023-06-01T13:58:42;100604.00;;;20.60
80246;BMP280;69558;39.208;-77.226;2023-06-01T14:01:07;100605.41;;;20.63
80246;BMP280;69558;39.208;-77.226;2023-06-01T14:03:33;100599.34;;;20.62
80246;BMP280;69558;39.208;-77.226;2023-06-01T14:06:00;100583.47;;;20.56
80246;BMP280;69558;39.208;-77.226;2023-06-01T14:08:26;100604.63;;;20.69
80246;BMP280;69558;39.208;-77.226;2023-06-01T14:10:51;100600.34;;;20.61